sensor_id;sensor_type;location;lat;lon;timestamp;pressure;altitude;pressure_sealevel;temperature;humidity
9059;BME280;4564;42.034;25.834;2023-04-28T00:01:07;100384.22;;;10.20;100.00
9059;BME280;4564;42.034;25.834;2023-04-28T00:03:34;100379.59;;;10.21;100.00
9059;BME280;4564;42.034;25.834;2023-04-28T00:06:02;100386.25;;;10.18;100.00
9059;BME280;4564;42.034;25.834;2023-04-28T00:08:29;100386.91;;;10.20;100.00
9059;BME280;4564;42.034;25.834;2023-04-28T00:10:55;100389.63;;;10.20;99.98
9059;BME280;4564;42.034;25.834;2023-04-28T00:13:22;100384.22;;;10.20;100.00
9059;BME280;4564;42.034;25.834;2023-04-28T00:15:49;100389.25;;;10.23;99.51
9059;BME280;4564;42.034;25.834;2023-04-28T00:18:17;100393.66;;;10.24;99.41
9059;BME280;4564;42.034;25.834;2023-04-28T00:20:43;100397.09;;;10.18;99.75
9059;BME280;4564;42.034;25.834;2023-04-28T00:23:11;100396.41;;;10.16;99.96
9059;BME280;4564;42.034;25.834;2023-04-28T00:25:38;100399.13;;;10.16;100.00
9059;BME280;4564;42.034;25.834;2023-04-28T00:28:04;100398.47;;;10.14;100.00
9059;BME280;4564;42.034;25.834;2023-04-28T00:30:31;100398.25;;;10.16;100.00
9059;BME280;4564;42.034;25.834;2023-04-28T00:32:58;100394.22;;;10.11;100.00
9059;BME280;4564;42.034;25.834;2023-04-28T00:35:24;100390.31;;;10.14;100.00
9059;BME280;4564;42.034;25.834;2023-04-28T00:37:51;100399.81;;;10.18;100.00
9059;BME280;4564;42.034;25.834;2023-04-28T00:40:19;100393.38;;;10.19;99.97
9059;BME280;4564;42.034;25.834;2023-04-28T00:42:45;100395.53;;;10.24;99.92
9059;BME280;4564;42.034;25.834;2023-04-28T00:45:12;100396.84;;;10.28;99.64
9059;BME280;4564;42.034;25.834;2023-04-28T00:47:39;100399.72;;;10.26;99.75
9059;BME280;4564;42.034;25.834;2023-04-28T00:50:07;100399.72;;;10.26;99.47
9059;BME280;4564;42.034;25.834;2023-04-28T00:52:34;100398.06;;;10.25;99.25
9059;BME280;4564;42.034;25.834;2023-04-28T00:55:02;100409.09;;;10.24;99.14
9059;BME280;4564;42.034;25.834;2023-04-28T00:57:30;100409.94;;;10.24;98.65
9059;BME280;4564;42.034;25.834;2023-04-28T00:59:57;100418.06;;;10.24;98.80
9059;BME280;4564;42.034;25.834;2023-04-28T01:02:24;100425.22;;;10.17;98.62
9059;BME280;4564;42.034;25.834;2023-04-28T01:04:53;100419.09;;;10.23;97.78
9059;BME280;4564;42.034;25.834;2023-04-28T01:07:21;100422.38;;;10.10;99.63
9059;BME280;4564;42.034;25.834;2023-04-28T01:09:48;100432.13;;;9.97;100.00
9059;BME280;4564;42.034;25.834;2023-04-28T01:12:15;100427.19;;;10.00;100.00
9059;BME280;4564;42.034;25.834;2023-04-28T01:14:43;100431.16;;;9.90;100.00
9059;BME280;4564;42.034;25.834;2023-04-28T01:17:10;100438.69;;;9.80;100.00
9059;BME280;4564;42.034;25.834;2023-04-28T01:19:36;100436.34;;;9.77;100.00
9059;BME280;4564;42.034;25.834;2023-04-28T01:22:03;100439.06;;;9.77;100.00
9059;BME280;4564;42.034;25.834;2023-04-28T01:24:31;100432.53;;;9.86;100.00
9059;BME280;4564;42.034;25.834;2023-04-28T01:26:57;100441.03;;;9.83;100.00
9059;BME280;4564;42.034;25.834;2023-04-28T01:29:24;100439.84;;;9.85;100.00
9059;BME280;4564;42.034;25.834;2023-04-28T01:31:51;100439.00;;;9.85;100.00
9059;BME280;4564;42.034;25.834;2023-04-28T01:34:17;100434.88;;;9.89;100.00
9059;BME280;4564;42.034;25.834;2023-04-28T01:36:44;100439.84;;;9.85;100.00
9059;BME280;4564;42.034;25.834;2023-04-28T01:39:10;100449.50;;;9.88;100.00
9059;BME280;4564;42.034;25.834;2023-04-28T01:41:39;100445.41;;;9.84;100.00
9059;BME280;4564;42.034;25.834;2023-04-28T01:44:06;100452.22;;;9.80;100.00
9059;BME280;4564;42.034;25.834;2023-04-28T01:46:32;100452.59;;;9.77;100.00
9059;BME280;4564;42.034;25.834;2023-04-28T01:48:59;100453.25;;;9.79;100.00
9059;BME280;4564;42.034;25.834;2023-04-28T01:51:26;100452.06;;;9.81;100.00
9059;BME280;4564;42.034;25.834;2023-04-28T01:53:52;100453.06;;;9.80;100.00
9059;BME280;4564;42.034;25.834;2023-04-28T01:56:19;100455.09;;;9.78;100.00
9059;BME280;4564;42.034;25.834;2023-04-28T01:58:47;100464.47;;;9.76;100.00
9059;BME280;4564;42.034;25.834;2023-04-28T02:01:14;100462.41;;;9.78;100.00
9059;BME280;4564;42.034;25.834;2023-04-28T02:03:41;100460.19;;;9.81;100.00
9059;BME280;4564;42.034;25.834;2023-04-28T02:06:07;100462.69;;;9.83;100.00
9059;BME280;4564;42.034;25.834;2023-04-28T02:08:34;100464.69;;;9.89;100.00
9059;BME280;4564;42.034;25.834;2023-04-28T02:11:00;100476.94;;;9.85;100.00
9059;BME280;4564;42.034;25.834;2023-04-28T02:13:28;100468.63;;;9.86;100.00
9059;BME280;4564;42.034;25.834;2023-04-28T02:15:58;100473.88;;;9.88;100.00
9059;BME280;4564;42.034;25.834;2023-04-28T02:18:25;100469.94;;;9.90;100.00
9059;BME280;4564;42.034;25.834;2023-04-28T02:20:51;100469.47;;;9.87;100.00
9059;BME280;4564;42.034;25.834;2023-04-28T02:23:18;100479.94;;;9.90;100.00
9059;BME280;4564;42.034;25.834;2023-04-28T02:25:46;100479.94;;;9.90;100.00
9059;BME280;4564;42.034;25.834;2023-04-28T02:28:13;100484.38;;;9.83;100.00
9059;BME280;4564;42.034;25.834;2023-04-28T02:30:40;100483.75;;;9.73;100.00
9059;BME280;4564;42.034;25.834;2023-04-28T02:33:08;100487.38;;;9.65;100.00
9059;BME280;4564;42.034;25.834;2023-04-28T02:35:34;100504.44;;;9.74;100.00
9059;BME280;4564;42.034;25.834;2023-04-28T02:38:01;100501.56;;;9.75;100.00
9059;BME280;4564;42.034;25.834;2023-04-28T02:40:28;100511.22;;;9.69;100.00
9059;BME280;4564;42.034;25.834;2023-04-28T02:42:54;100510.22;;;9.62;100.00
9059;BME280;4564;42.034;25.834;2023-04-28T02:45:21;100512.47;;;9.59;100.00
9059;BME280;4564;42.034;25.834;2023-04-28T02:47:47;100524.16;;;9.59;100.00
9059;BME280;4564;42.034;25.834;2023-04-28T02:50:15;100520.41;;;9.60;99.81
9059;BME280;4564;42.034;25.834;2023-04-28T02:52:42;100528.66;;;9.67;99.04
9059;BME280;4564;42.034;25.834;2023-04-28T02:55:09;100530.22;;;9.61;99.38
9059;BME280;4564;42.034;25.834;2023-04-28T02:57:35;100536.31;;;9.72;99.11
9059;BME280;4564;42.034;25.834;2023-04-28T03:00:02;100544.00;;;9.83;96.79
9059;BME280;4564;42.034;25.834;2023-04-28T03:02:29;100545.38;;;9.87;96.34
9059;BME280;4564;42.034;25.834;2023-04-28T03:04:56;100544.38;;;9.80;96.06
9059;BME280;4564;42.034;25.834;2023-04-28T03:07:24;100550.53;;;9.65;96.65
9059;BME280;4564;42.034;25.834;2023-04-28T03:09:50;100553.06;;;9.67;95.20
9059;BME280;4564;42.034;25.834;2023-04-28T03:12:17;100560.84;;;9.70;94.82
9059;BME280;4564;42.034;25.834;2023-04-28T03:14:44;100555.50;;;9.54;96.05
9059;BME280;4564;42.034;25.834;2023-04-28T03:17:10;100560.59;;;9.41;96.74
9059;BME280;4564;42.034;25.834;2023-04-28T03:19:38;100560.44;;;9.34;96.61
9059;BME280;4564;42.034;25.834;2023-04-28T03:22:05;100572.31;;;9.25;97.05
9059;BME280;4564;42.034;25.834;2023-04-28T03:24:33;100561.84;;;9.22;97.58
9059;BME280;4564;42.034;25.834;2023-04-28T03:26:59;100573.84;;;9.19;96.77
9059;BME280;4564;42.034;25.834;2023-04-28T03:29:26;100578.06;;;9.14;97.66
9059;BME280;4564;42.034;25.834;2023-04-28T03:31:52;100583.00;;;9.10;97.64
9059;BME280;4564;42.034;25.834;2023-04-28T03:34:19;100585.19;;;9.15;98.49
9059;BME280;4564;42.034;25.834;2023-04-28T03:36:45;100589.06;;;9.12;97.58
9059;BME280;4564;42.034;25.834;2023-04-28T03:39:12;100594.16;;;9.15;98.21
9059;BME280;4564;42.034;25.834;2023-04-28T03:41:40;100590.94;;;9.20;97.67
9059;BME280;4564;42.034;25.834;2023-04-28T03:44:06;100594.81;;;9.25;97.46
9059;BME280;4564;42.034;25.834;2023-04-28T03:46:33;100592.59;;;9.37;97.25
9059;BME280;4564;42.034;25.834;2023-04-28T03:49:00;100594.09;;;9.48;97.48
9059;BME280;4564;42.034;25.834;2023-04-28T03:51:27;100595.75;;;9.57;96.77
9059;BME280;4564;42.034;25.834;2023-04-28T03:53:54;100602.69;;;9.67;93.92
9059;BME280;4564;42.034;25.834;2023-04-28T03:56:21;100612.50;;;9.77;93.90
9059;BME280;4564;42.034;25.834;2023-04-28T03:58:48;100614.16;;;9.86;91.64
9059;BME280;4564;42.034;25.834;2023-04-28T04:01:15;100618.50;;;9.95;91.03
9059;BME280;4564;42.034;25.834;2023-04-28T04:03:42;100620.50;;;10.09;88.83
9059;BME280;4564;42.034;25.834;2023-04-28T04:06:08;100622.88;;;10.20;86.96
9059;BME280;4564;42.034;25.834;2023-04-28T04:08:35;100626.91;;;10.24;86.98
9059;BME280;4564;42.034;25.834;2023-04-28T04:11:01;100627.56;;;10.26;87.14
9059;BME280;4564;42.034;25.834;2023-04-28T04:13:28;100626.50;;;10.35;86.51
9059;BME280;4564;42.034;25.834;2023-04-28T04:15:56;100629.53;;;10.40;85.75
9059;BME280;4564;42.034;25.834;2023-04-28T04:18:23;100621.00;;;10.51;85.92
9059;BME280;4564;42.034;25.834;2023-04-28T04:20:49;100635.00;;;10.63;85.54
9059;BME280;4564;42.034;25.834;2023-04-28T04:23:18;100635.47;;;10.67;83.28
9059;BME280;4564;42.034;25.834;2023-04-28T04:25:44;100635.97;;;10.93;82.19
9059;BME280;4564;42.034;25.834;2023-04-28T04:28:11;100638.81;;;11.00;81.96
9059;BME280;4564;42.034;25.834;2023-04-28T04:30:38;100637.28;;;10.97;84.53
9059;BME280;4564;42.034;25.834;2023-04-28T04:33:06;100644.66;;;11.11;83.43
9059;BME280;4564;42.034;25.834;2023-04-28T04:35:33;100645.25;;;11.21;81.83
9059;BME280;4564;42.034;25.834;2023-04-28T04:37:59;100654.72;;;11.25;81.81
9059;BME280;4564;42.034;25.834;2023-04-28T04:40:26;100650.59;;;11.29;79.52
9059;BME280;4564;42.034;25.834;2023-04-28T04:42:53;100649.00;;;11.20;79.61
9059;BME280;4564;42.034;25.834;2023-04-28T04:45:19;100657.88;;;11.14;80.58
9059;BME280;4564;42.034;25.834;2023-04-28T04:47:46;100666.13;;;11.21;82.33
9059;BME280;4564;42.034;25.834;2023-04-28T04:50:15;100659.13;;;11.26;82.84
9059;BME280;4564;42.034;25.834;2023-04-28T04:52:41;100668.03;;;11.35;81.90
9059;BME280;4564;42.034;25.834;2023-04-28T04:55:08;100670.97;;;11.33;80.26
9059;BME280;4564;42.034;25.834;2023-04-28T04:57:35;100680.69;;;11.28;80.72
9059;BME280;4564;42.034;25.834;2023-04-28T05:00:02;100683.41;;;11.28;80.93
9059;BME280;4564;42.034;25.834;2023-04-28T05:02:29;100693.34;;;11.35;81.05
9059;BME280;4564;42.034;25.834;2023-04-28T05:04:55;100700.94;;;11.40;77.93
9059;BME280;4564;42.034;25.834;2023-04-28T05:07:23;100693.06;;;11.30;78.57
9059;BME280;4564;42.034;25.834;2023-04-28T05:09:50;100703.69;;;11.17;77.95
9059;BME280;4564;42.034;25.834;2023-04-28T05:12:17;100703.56;;;11.33;76.93
9059;BME280;4564;42.034;25.834;2023-04-28T05:14:43;100706.28;;;11.33;78.02
9059;BME280;4564;42.034;25.834;2023-04-28T05:17:10;100708.25;;;11.40;77.26
9059;BME280;4564;42.034;25.834;2023-04-28T05:19:37;100713.34;;;11.43;79.54
9059;BME280;4564;42.034;25.834;2023-04-28T05:22:03;100710.91;;;11.48;78.19
9059;BME280;4564;42.034;25.834;2023-04-28T05:24:32;100712.59;;;11.49;77.37
9059;BME280;4564;42.034;25.834;2023-04-28T05:26:59;100711.31;;;11.59;77.55
9059;BME280;4564;42.034;25.834;2023-04-28T05:29:26;100710.19;;;11.76;77.64
9059;BME280;4564;42.034;25.834;2023-04-28T05:31:52;100709.69;;;11.73;78.69
9059;BME280;4564;42.034;25.834;2023-04-28T05:34:19;100714.38;;;11.79;77.40
9059;BME280;4564;42.034;25.834;2023-04-28T05:36:45;100728.50;;;11.97;76.68
9059;BME280;4564;42.034;25.834;2023-04-28T05:39:12;100722.59;;;12.23;73.93
9059;BME280;4564;42.034;25.834;2023-04-28T05:41:40;100723.34;;;12.32;73.86
9059;BME280;4564;42.034;25.834;2023-04-28T05:44:06;100729.06;;;12.22;74.48
9059;BME280;4564;42.034;25.834;2023-04-28T05:46:33;100730.66;;;12.31;74.98
9059;BME280;4564;42.034;25.834;2023-04-28T05:49:00;100735.44;;;12.58;72.72
9059;BME280;4564;42.034;25.834;2023-04-28T05:51:26;100737.03;;;12.68;73.05
9059;BME280;4564;42.034;25.834;2023-04-28T05:53:53;100738.63;;;13.13;69.99
9059;BME280;4564;42.034;25.834;2023-04-28T05:56:20;100739.44;;;13.70;69.20
9059;BME280;4564;42.034;25.834;2023-04-28T05:58:48;100744.59;;;13.86;68.97
9059;BME280;4564;42.034;25.834;2023-04-28T06:01:15;100755.22;;;14.03;68.79
9059;BME280;4564;42.034;25.834;2023-04-28T06:03:42;100746.13;;;14.23;62.87
9059;BME280;4564;42.034;25.834;2023-04-28T06:06:09;100756.19;;;14.23;60.87
9059;BME280;4564;42.034;25.834;2023-04-28T06:08:36;100756.00;;;13.97;60.00
9059;BME280;4564;42.034;25.834;2023-04-28T06:11:02;100759.59;;;14.04;59.96
9059;BME280;4564;42.034;25.834;2023-04-28T06:13:29;100749.69;;;13.96;60.77
9059;BME280;4564;42.034;25.834;2023-04-28T06:15:57;100757.47;;;14.27;60.87
9059;BME280;4564;42.034;25.834;2023-04-28T06:18:24;100755.13;;;14.45;60.42
9059;BME280;4564;42.034;25.834;2023-04-28T06:20:51;100766.19;;;14.37;57.08
9059;BME280;4564;42.034;25.834;2023-04-28T06:23:17;100758.88;;;14.44;58.51
9059;BME280;4564;42.034;25.834;2023-04-28T06:25:44;100760.22;;;15.02;57.55
9059;BME280;4564;42.034;25.834;2023-04-28T06:28:11;100755.34;;;15.98;54.71
9059;BME280;4564;42.034;25.834;2023-04-28T06:30:39;100758.03;;;17.08;52.70
9059;BME280;4564;42.034;25.834;2023-04-28T06:33:07;100761.91;;;18.44;48.80
9059;BME280;4564;42.034;25.834;2023-04-28T06:35:33;100775.81;;;19.94;40.68
9059;BME280;4564;42.034;25.834;2023-04-28T06:38:03;100763.56;;;20.55;38.89
9059;BME280;4564;42.034;25.834;2023-04-28T06:40:29;100767.34;;;20.07;39.48
9059;BME280;4564;42.034;25.834;2023-04-28T06:42:56;100762.84;;;19.59;36.81
9059;BME280;4564;42.034;25.834;2023-04-28T06:45:23;100769.66;;;18.72;38.71
9059;BME280;4564;42.034;25.834;2023-04-28T06:47:49;100768.16;;;18.09;39.94
9059;BME280;4564;42.034;25.834;2023-04-28T06:50:18;100766.84;;;17.55;42.87
9059;BME280;4564;42.034;25.834;2023-04-28T06:52:44;100763.78;;;17.00;43.32
9059;BME280;4564;42.034;25.834;2023-04-28T06:55:13;100765.06;;;16.98;44.60
9059;BME280;4564;42.034;25.834;2023-04-28T06:57:40;100766.03;;;17.16;44.57
9059;BME280;4564;42.034;25.834;2023-04-28T07:00:07;100762.66;;;17.14;44.30
9059;BME280;4564;42.034;25.834;2023-04-28T07:02:35;100766.75;;;16.99;43.83
9059;BME280;4564;42.034;25.834;2023-04-28T07:05:02;100768.78;;;16.26;43.95
9059;BME280;4564;42.034;25.834;2023-04-28T07:07:30;100764.59;;;16.23;45.73
9059;BME280;4564;42.034;25.834;2023-04-28T07:09:57;100760.38;;;16.41;48.09
9059;BME280;4564;42.034;25.834;2023-04-28T07:12:24;100767.31;;;16.36;45.92
9059;BME280;4564;42.034;25.834;2023-04-28T07:14:51;100779.94;;;16.64;45.82
9059;BME280;4564;42.034;25.834;2023-04-28T07:17:18;100769.63;;;16.46;46.21
9059;BME280;4564;42.034;25.834;2023-04-28T07:19:44;100762.25;;;16.60;43.88
9059;BME280;4564;42.034;25.834;2023-04-28T07:22:11;100713.28;;;16.76;43.33
9059;BME280;4564;42.034;25.834;2023-04-28T07:24:39;100765.63;;;17.06;44.71
9059;BME280;4564;42.034;25.834;2023-04-28T07:27:05;100767.94;;;17.85;45.27
9059;BME280;4564;42.034;25.834;2023-04-28T07:29:32;100769.38;;;20.00;38.34
9059;BME280;4564;42.034;25.834;2023-04-28T07:31:59;100769.13;;;21.34;35.49
9059;BME280;4564;42.034;25.834;2023-04-28T07:34:27;100772.47;;;22.27;33.93
9059;BME280;4564;42.034;25.834;2023-04-28T07:36:53;100771.88;;;22.25;33.69
9059;BME280;4564;42.034;25.834;2023-04-28T07:39:20;100767.97;;;21.92;32.29
9059;BME280;4564;42.034;25.834;2023-04-28T07:41:48;100768.06;;;20.02;35.50
9059;BME280;4564;42.034;25.834;2023-04-28T07:44:15;100758.25;;;19.53;38.50
9059;BME280;4564;42.034;25.834;2023-04-28T07:46:42;100762.00;;;18.74;38.80
9059;BME280;4564;42.034;25.834;2023-04-28T07:49:08;100759.66;;;18.60;39.78
9059;BME280;4564;42.034;25.834;2023-04-28T07:51:35;100749.56;;;19.68;39.19
9059;BME280;4564;42.034;25.834;2023-04-28T07:54:01;100759.22;;;20.35;36.44
9059;BME280;4564;42.034;25.834;2023-04-28T07:56:28;100752.75;;;20.41;38.14
9059;BME280;4564;42.034;25.834;2023-04-28T07:58:56;100744.81;;;20.10;36.72
9059;BME280;4564;42.034;25.834;2023-04-28T08:01:23;100745.78;;;19.03;39.40
9059;BME280;4564;42.034;25.834;2023-04-28T08:03:50;100748.97;;;18.27;40.63
9059;BME280;4564;42.034;25.834;2023-04-28T08:06:16;100747.28;;;17.76;42.86
9059;BME280;4564;42.034;25.834;2023-04-28T08:08:43;100745.97;;;17.85;41.49
9059;BME280;4564;42.034;25.834;2023-04-28T08:11:10;100752.56;;;17.46;40.61
9059;BME280;4564;42.034;25.834;2023-04-28T08:13:36;100746.63;;;16.67;40.97
9059;BME280;4564;42.034;25.834;2023-04-28T08:16:05;100744.63;;;16.03;41.36
9059;BME280;4564;42.034;25.834;2023-04-28T08:18:31;100734.44;;;15.31;41.73
9059;BME280;4564;42.034;25.834;2023-04-28T08:20:58;100737.81;;;15.46;42.87
9059;BME280;4564;42.034;25.834;2023-04-28T08:23:25;100737.03;;;16.05;43.83
9059;BME280;4564;42.034;25.834;2023-04-28T08:25:52;100727.06;;;16.30;43.13
9059;BME280;4564;42.034;25.834;2023-04-28T08:28:20;100732.34;;;16.25;43.94
9059;BME280;4564;42.034;25.834;2023-04-28T08:30:46;100735.88;;;16.52;40.70
9059;BME280;4564;42.034;25.834;2023-04-28T08:33:14;100720.91;;;16.68;39.11
9059;BME280;4564;42.034;25.834;2023-04-28T08:35:41;100725.41;;;17.00;37.43
9059;BME280;4564;42.034;25.834;2023-04-28T08:38:08;100724.94;;;17.03;36.78
9059;BME280;4564;42.034;25.834;2023-04-28T08:40:38;100718.06;;;17.57;34.58
9059;BME280;4564;42.034;25.834;2023-04-28T08:43:04;100712.34;;;17.90;35.67
9059;BME280;4564;42.034;25.834;2023-04-28T08:45:31;100708.59;;;17.84;35.12
9059;BME280;4564;42.034;25.834;2023-04-28T08:48:05;100718.78;;;18.02;35.68
9059;BME280;4564;42.034;25.834;2023-04-28T08:50:38;100722.00;;;18.17;34.65
9059;BME280;4564;42.034;25.834;2023-04-28T08:53:07;100715.19;;;17.77;34.19
9059;BME280;4564;42.034;25.834;2023-04-28T08:55:35;100711.09;;;17.61;33.87
9059;BME280;4564;42.034;25.834;2023-04-28T08:58:02;100709.00;;;17.56;34.27
9059;BME280;4564;42.034;25.834;2023-04-28T09:00:29;100704.97;;;17.59;36.76
9059;BME280;4564;42.034;25.834;2023-04-28T09:02:56;100678.25;;;17.16;32.92
9059;BME280;4564;42.034;25.834;2023-04-28T09:05:23;100714.19;;;17.40;34.34
9059;BME280;4564;42.034;25.834;2023-04-28T09:07:51;100714.59;;;17.43;34.00
9059;BME280;4564;42.034;25.834;2023-04-28T09:10:18;100715.53;;;17.62;33.40
9059;BME280;4564;42.034;25.834;2023-04-28T09:12:45;100712.06;;;17.42;35.65
9059;BME280;4564;42.034;25.834;2023-04-28T09:15:24;100713.69;;;17.81;33.54
9059;BME280;4564;42.034;25.834;2023-04-28T09:17:51;100707.19;;;17.75;33.57
9059;BME280;4564;42.034;25.834;2023-04-28T09:20:21;100716.44;;;17.81;33.92
9059;BME280;4564;42.034;25.834;2023-04-28T09:22:48;100701.31;;;18.15;33.61
9059;BME280;4564;42.034;25.834;2023-04-28T09:25:17;100698.72;;;18.20;33.65
9059;BME280;4564;42.034;25.834;2023-04-28T09:27:45;100695.97;;;18.01;34.61
9059;BME280;4564;42.034;25.834;2023-04-28T09:30:12;100699.00;;;17.93;34.66
9059;BME280;4564;42.034;25.834;2023-04-28T09:32:39;100699.31;;;18.03;34.23
9059;BME280;4564;42.034;25.834;2023-04-28T09:35:06;100694.38;;;18.30;33.04
9059;BME280;4564;42.034;25.834;2023-04-28T09:37:33;100691.06;;;17.85;34.49
9059;BME280;4564;42.034;25.834;2023-04-28T09:40:04;100694.00;;;18.27;34.83
9059;BME280;4564;42.034;25.834;2023-04-28T09:42:34;100690.47;;;18.20;33.80
9059;BME280;4564;42.034;25.834;2023-04-28T09:45:01;100685.78;;;17.84;35.34
9059;BME280;4564;42.034;25.834;2023-04-28T09:47:28;100687.91;;;17.50;34.86
9059;BME280;4564;42.034;25.834;2023-04-28T09:49:55;100684.69;;;17.60;35.50
9059;BME280;4564;42.034;25.834;2023-04-28T09:52:22;100672.88;;;17.84;36.39
9059;BME280;4564;42.034;25.834;2023-04-28T09:54:49;100668.50;;;18.01;35.75
9059;BME280;4564;42.034;25.834;2023-04-28T09:57:15;100668.91;;;18.41;34.59
9059;BME280;4564;42.034;25.834;2023-04-28T09:59:45;100671.78;;;18.46;33.91
9059;BME280;4564;42.034;25.834;2023-04-28T10:02:13;100672.25;;;18.07;34.97
9059;BME280;4564;42.034;25.834;2023-04-28T10:04:40;100654.94;;;18.07;34.77
9059;BME280;4564;42.034;25.834;2023-04-28T10:07:07;100677.97;;;18.06;34.68
9059;BME280;4564;42.034;25.834;2023-04-28T10:09:35;100661.44;;;17.87;35.56
9059;BME280;4564;42.034;25.834;2023-04-28T10:12:02;100665.97;;;18.00;37.50
9059;BME280;4564;42.034;25.834;2023-04-28T10:14:30;100656.25;;;18.40;34.92
9059;BME280;4564;42.034;25.834;2023-04-28T10:16:58;100661.19;;;18.32;35.09
9059;BME280;4564;42.034;25.834;2023-04-28T10:19:27;100657.53;;;17.77;36.94
9059;BME280;4564;42.034;25.834;2023-04-28T10:21:55;100654.94;;;17.57;35.83
9059;BME280;4564;42.034;25.834;2023-04-28T10:24:27;100652.81;;;17.59;36.46
9059;BME280;4564;42.034;25.834;2023-04-28T10:27:01;100654.59;;;17.47;37.51
9059;BME280;4564;42.034;25.834;2023-04-28T10:29:29;100639.41;;;17.44;36.67
9059;BME280;4564;42.034;25.834;2023-04-28T10:32:20;100643.03;;;17.13;37.20
9059;BME280;4564;42.034;25.834;2023-04-28T10:34:47;100647.38;;;16.52;38.76
9059;BME280;4564;42.034;25.834;2023-04-28T10:37:14;100643.16;;;16.62;38.70
9059;BME280;4564;42.034;25.834;2023-04-28T10:45:15;100626.25;;;16.01;41.05
9059;BME280;4564;42.034;25.834;2023-04-28T10:48:03;100621.84;;;16.00;40.56
9059;BME280;4564;42.034;25.834;2023-04-28T10:50:30;100622.84;;;16.19;40.23
9059;BME280;4564;42.034;25.834;2023-04-28T10:52:57;100618.81;;;16.21;39.50
9059;BME280;4564;42.034;25.834;2023-04-28T10:55:28;100619.69;;;16.15;39.71
9059;BME280;4564;42.034;25.834;2023-04-28T11:00:43;100605.78;;;16.10;41.43
9059;BME280;4564;42.034;25.834;2023-04-28T11:08:55;100607.13;;;16.90;39.94
9059;BME280;4564;42.034;25.834;2023-04-28T11:11:23;100602.94;;;17.12;41.13
9059;BME280;4564;42.034;25.834;2023-04-28T11:13:50;100599.16;;;17.13;39.34
9059;BME280;4564;42.034;25.834;2023-04-28T11:16:22;100605.19;;;17.22;39.95
9059;BME280;4564;42.034;25.834;2023-04-28T11:18:52;100599.16;;;17.13;38.29
9059;BME280;4564;42.034;25.834;2023-04-28T11:21:20;100600.44;;;17.11;39.35
9059;BME280;4564;42.034;25.834;2023-04-28T11:23:47;100599.28;;;17.00;40.92
9059;BME280;4564;42.034;25.834;2023-04-28T11:26:16;100604.63;;;17.13;40.37
9059;BME280;4564;42.034;25.834;2023-04-28T11:28:47;100603.41;;;17.09;38.80
9059;BME280;4564;42.034;25.834;2023-04-28T11:31:14;100605.19;;;16.97;38.48
9059;BME280;4564;42.034;25.834;2023-04-28T11:33:45;100601.19;;;16.62;38.34
9059;BME280;4564;42.034;25.834;2023-04-28T11:36:22;100598.25;;;16.50;40.13
9059;BME280;4564;42.034;25.834;2023-04-28T11:38:49;100598.22;;;16.63;42.06
9059;BME280;4564;42.034;25.834;2023-04-28T11:41:17;100604.19;;;16.85;40.86
9059;BME280;4564;42.034;25.834;2023-04-28T11:43:44;100600.63;;;17.16;39.58
9059;BME280;4564;42.034;25.834;2023-04-28T11:46:14;100605.78;;;17.31;38.19
9059;BME280;4564;42.034;25.834;2023-04-28T11:48:41;100602.56;;;17.34;38.53
9059;BME280;4564;42.034;25.834;2023-04-28T11:51:08;100600.84;;;17.39;38.95
9059;BME280;4564;42.034;25.834;2023-04-28T11:53:40;100606.38;;;17.57;37.37
9059;BME280;4564;42.034;25.834;2023-04-28T11:56:08;100590.78;;;17.76;36.77
9059;BME280;4564;42.034;25.834;2023-04-28T11:58:36;100594.00;;;17.73;36.15
9059;BME280;4564;42.034;25.834;2023-04-28T12:01:06;100580.84;;;17.57;36.31
9059;BME280;4564;42.034;25.834;2023-04-28T12:03:32;100588.59;;;17.42;38.49
9059;BME280;4564;42.034;25.834;2023-04-28T12:06:07;100590.50;;;17.41;38.18
9059;BME280;4564;42.034;25.834;2023-04-28T12:08:33;100581.47;;;17.59;36.85
9059;BME280;4564;42.034;25.834;2023-04-28T12:11:06;100578.06;;;17.64;39.12
9059;BME280;4564;42.034;25.834;2023-04-28T12:13:33;100572.19;;;17.78;38.83
9059;BME280;4564;42.034;25.834;2023-04-28T12:16:02;100568.16;;;17.99;38.39
9059;BME280;4564;42.034;25.834;2023-04-28T12:18:30;100558.53;;;18.26;36.97
9059;BME280;4564;42.034;25.834;2023-04-28T12:20:56;100559.22;;;18.22;36.57
9059;BME280;4564;42.034;25.834;2023-04-28T12:23:30;100557.88;;;17.94;37.46
9059;BME280;4564;42.034;25.834;2023-04-28T12:25:57;100556.59;;;17.97;38.70
9059;BME280;4564;42.034;25.834;2023-04-28T12:28:34;100560.22;;;18.09;37.48
9059;BME280;4564;42.034;25.834;2023-04-28T12:31:03;100559.16;;;18.28;37.28
9059;BME280;4564;42.034;25.834;2023-04-28T12:33:30;100551.41;;;18.37;35.92
9059;BME280;4564;42.034;25.834;2023-04-28T12:35:58;100549.59;;;18.31;34.84
9059;BME280;4564;42.034;25.834;2023-04-28T12:38:25;100540.00;;;18.22;36.72
9059;BME280;4564;42.034;25.834;2023-04-28T12:40:52;100540.19;;;18.38;36.72
9059;BME280;4564;42.034;25.834;2023-04-28T12:43:19;100542.28;;;18.84;35.74
9059;BME280;4564;42.034;25.834;2023-04-28T12:45:47;100533.13;;;19.02;34.72
9059;BME280;4564;42.034;25.834;2023-04-28T12:48:15;100532.97;;;18.85;34.87
9059;BME280;4564;42.034;25.834;2023-04-28T12:50:42;100529.91;;;18.64;35.44
9059;BME280;4564;42.034;25.834;2023-04-28T12:53:09;100524.63;;;18.02;35.56
9059;BME280;4564;42.034;25.834;2023-04-28T12:55:36;100521.31;;;18.12;36.11
9059;BME280;4564;42.034;25.834;2023-04-28T12:58:04;100520.63;;;17.98;36.65
9059;BME280;4564;42.034;25.834;2023-04-28T13:00:30;100524.63;;;17.84;36.60
9059;BME280;4564;42.034;25.834;2023-04-28T13:02:57;100507.59;;;17.94;37.66
9059;BME280;4564;42.034;25.834;2023-04-28T13:05:25;100502.13;;;17.76;37.17
9059;BME280;4564;42.034;25.834;2023-04-28T13:07:52;100504.78;;;17.82;37.48
9059;BME280;4564;42.034;25.834;2023-04-28T13:10:19;100497.53;;;17.88;37.82
9059;BME280;4564;42.034;25.834;2023-04-28T13:12:47;100491.81;;;17.89;37.18
9059;BME280;4564;42.034;25.834;2023-04-28T13:15:14;100492.50;;;17.67;37.06